Santa Helena de Goias, Brazil
Current Conditions -  °F | °C
As of 3:00 PM on Sunday 21 Dec 2014 (Local Time) from SBGO Reporting Station
Broken Clouds Broken Clouds  
Wind Chill: 81°   Ceiling: 10000
Heat Index: 82°   Visibility: 6mi
Dew Point: 64°   Wind: 14mph
Humidity: 58%   Direction: 280°W
Pressure: 30"   Gusts: NA
Location:  17.81°S, 50.6°W
Report Text: SBGO 211700Z 28012KT 9999 SCT025 BKN100 27/18 Q1016
Loading
Personal Weather Stations






























Interactive Weather Map New forecast layout! Learn more

10-Day Weather Forecast

Advertisements
Track Severe Weather on mobile